sensor_id;sensor_type;location;lat;lon;timestamp;P1;durP1;ratioP1;P2;durP2;ratioP2
54699;SDS011;40599;53.132;6.090;2022-08-14T00:00:01;10.05;;;6.00;;
54699;SDS011;40599;53.132;6.090;2022-08-14T00:02:31;8.40;;;6.60;;
54699;SDS011;40599;53.132;6.090;2022-08-14T00:04:57;10.82;;;7.03;;
54699;SDS011;40599;53.132;6.090;2022-08-14T00:07:23;8.57;;;6.45;;
54699;SDS011;40599;53.132;6.090;2022-08-14T00:09:48;9.07;;;6.80;;
54699;SDS011;40599;53.132;6.090;2022-08-14T00:12:14;10.88;;;6.35;;
54699;SDS011;40599;53.132;6.090;2022-08-14T00:14:40;13.80;;;6.90;;
54699;SDS011;40599;53.132;6.090;2022-08-14T00:17:06;9.07;;;7.15;;
54699;SDS011;40599;53.132;6.090;2022-08-14T00:19:31;11.63;;;6.90;;
54699;SDS011;40599;53.132;6.090;2022-08-14T00:21:57;9.95;;;6.95;;
54699;SDS011;40599;53.132;6.090;2022-08-14T00:24:23;10.20;;;7.63;;
54699;SDS011;40599;53.132;6.090;2022-08-14T00:26:49;15.13;;;7.90;;
54699;SDS011;40599;53.132;6.090;2022-08-14T00:29:14;9.95;;;7.72;;
54699;SDS011;40599;53.132;6.090;2022-08-14T00:31:40;11.25;;;7.82;;
54699;SDS011;40599;53.132;6.090;2022-08-14T00:34:06;9.02;;;7.53;;
54699;SDS011;40599;53.132;6.090;2022-08-14T00:36:32;9.55;;;7.35;;
54699;SDS011;40599;53.132;6.090;2022-08-14T00:38:58;8.60;;;7.30;;
54699;SDS011;40599;53.132;6.090;2022-08-14T00:41:28;9.75;;;7.05;;
54699;SDS011;40599;53.132;6.090;2022-08-14T00:43:55;13.07;;;7.43;;
54699;SDS011;40599;53.132;6.090;2022-08-14T00:46:21;10.18;;;7.47;;
54699;SDS011;40599;53.132;6.090;2022-08-14T00:48:47;10.70;;;7.55;;
54699;SDS011;40599;53.132;6.090;2022-08-14T00:51:13;8.95;;;7.07;;
54699;SDS011;40599;53.132;6.090;2022-08-14T00:53:39;8.35;;;7.40;;
54699;SDS011;40599;53.132;6.090;2022-08-14T00:56:05;9.20;;;7.50;;
54699;SDS011;40599;53.132;6.090;2022-08-14T00:58:32;10.43;;;7.70;;
54699;SDS011;40599;53.132;6.090;2022-08-14T01:01:08;11.07;;;8.30;;
54699;SDS011;40599;53.132;6.090;2022-08-14T01:03:38;11.27;;;8.57;;
54699;SDS011;40599;53.132;6.090;2022-08-14T01:06:05;14.87;;;8.50;;
54699;SDS011;40599;53.132;6.090;2022-08-14T01:08:33;14.07;;;8.50;;
54699;SDS011;40599;53.132;6.090;2022-08-14T01:11:00;11.20;;;7.73;;
54699;SDS011;40599;53.132;6.090;2022-08-14T01:15:55;9.80;;;8.33;;
54699;SDS011;40599;53.132;6.090;2022-08-14T01:18:24;9.17;;;8.20;;
54699;SDS011;40599;53.132;6.090;2022-08-14T01:21:10;10.50;;;8.48;;
54699;SDS011;40599;53.132;6.090;2022-08-14T01:23:50;10.67;;;7.50;;
54699;SDS011;40599;53.132;6.090;2022-08-14T01:26:18;12.23;;;8.17;;
54699;SDS011;40599;53.132;6.090;2022-08-14T01:28:48;10.00;;;8.50;;
54699;SDS011;40599;53.132;6.090;2022-08-14T01:31:21;12.80;;;9.40;;
54699;SDS011;40599;53.132;6.090;2022-08-14T01:33:50;11.20;;;8.97;;
54699;SDS011;40599;53.132;6.090;2022-08-14T01:36:17;12.70;;;9.70;;
54699;SDS011;40599;53.132;6.090;2022-08-14T01:38:48;10.87;;;9.77;;
54699;SDS011;40599;53.132;6.090;2022-08-14T01:41:16;11.63;;;9.77;;
54699;SDS011;40599;53.132;6.090;2022-08-14T01:43:47;10.33;;;9.23;;
54699;SDS011;40599;53.132;6.090;2022-08-14T01:46:22;12.80;;;9.43;;
54699;SDS011;40599;53.132;6.090;2022-08-14T01:48:49;15.40;;;9.70;;
54699;SDS011;40599;53.132;6.090;2022-08-14T01:51:16;12.97;;;9.97;;
54699;SDS011;40599;53.132;6.090;2022-08-14T01:53:51;11.40;;;10.13;;
54699;SDS011;40599;53.132;6.090;2022-08-14T01:56:19;13.83;;;10.20;;
54699;SDS011;40599;53.132;6.090;2022-08-14T01:58:46;12.57;;;9.20;;
54699;SDS011;40599;53.132;6.090;2022-08-14T02:01:22;11.37;;;9.80;;
54699;SDS011;40599;53.132;6.090;2022-08-14T02:03:48;13.03;;;10.23;;
54699;SDS011;40599;53.132;6.090;2022-08-14T02:06:14;13.23;;;10.20;;
54699;SDS011;40599;53.132;6.090;2022-08-14T02:08:40;13.93;;;9.13;;
54699;SDS011;40599;53.132;6.090;2022-08-14T02:11:08;13.40;;;9.80;;
54699;SDS011;40599;53.132;6.090;2022-08-14T02:13:41;14.60;;;10.60;;
54699;SDS011;40599;53.132;6.090;2022-08-14T02:16:10;16.87;;;10.53;;
54699;SDS011;40599;53.132;6.090;2022-08-14T02:21:04;17.57;;;10.67;;
54699;SDS011;40599;53.132;6.090;2022-08-14T02:23:30;11.93;;;10.57;;
54699;SDS011;40599;53.132;6.090;2022-08-14T02:26:00;15.68;;;11.80;;
54699;SDS011;40599;53.132;6.090;2022-08-14T02:28:37;15.10;;;11.20;;
54699;SDS011;40599;53.132;6.090;2022-08-14T02:31:03;13.05;;;11.02;;
54699;SDS011;40599;53.132;6.090;2022-08-14T02:33:33;12.63;;;11.30;;
54699;SDS011;40599;53.132;6.090;2022-08-14T02:38:26;16.92;;;11.85;;
54699;SDS011;40599;53.132;6.090;2022-08-14T02:40:52;17.27;;;12.73;;
54699;SDS011;40599;53.132;6.090;2022-08-14T02:43:18;15.00;;;11.97;;
54699;SDS011;40599;53.132;6.090;2022-08-14T02:45:45;15.63;;;11.70;;
54699;SDS011;40599;53.132;6.090;2022-08-14T02:48:12;16.42;;;11.30;;
54699;SDS011;40599;53.132;6.090;2022-08-14T02:50:39;15.50;;;11.90;;
54699;SDS011;40599;53.132;6.090;2022-08-14T02:53:06;15.43;;;11.97;;
54699;SDS011;40599;53.132;6.090;2022-08-14T02:55:33;16.07;;;11.87;;
54699;SDS011;40599;53.132;6.090;2022-08-14T02:57:58;18.27;;;12.27;;
54699;SDS011;40599;53.132;6.090;2022-08-14T03:00:25;16.30;;;11.27;;
54699;SDS011;40599;53.132;6.090;2022-08-14T03:02:51;15.30;;;12.35;;
54699;SDS011;40599;53.132;6.090;2022-08-14T03:05:17;14.65;;;12.48;;
54699;SDS011;40599;53.132;6.090;2022-08-14T03:07:43;18.85;;;12.75;;
54699;SDS011;40599;53.132;6.090;2022-08-14T03:10:09;13.40;;;12.00;;
54699;SDS011;40599;53.132;6.090;2022-08-14T03:12:35;17.00;;;12.30;;
54699;SDS011;40599;53.132;6.090;2022-08-14T03:15:03;14.70;;;12.10;;
54699;SDS011;40599;53.132;6.090;2022-08-14T03:17:38;17.67;;;11.67;;
54699;SDS011;40599;53.132;6.090;2022-08-14T03:20:04;17.27;;;12.68;;
54699;SDS011;40599;53.132;6.090;2022-08-14T03:22:31;15.13;;;12.63;;
54699;SDS011;40599;53.132;6.090;2022-08-14T03:27:26;15.33;;;12.40;;
54699;SDS011;40599;53.132;6.090;2022-08-14T03:29:54;14.03;;;11.80;;
54699;SDS011;40599;53.132;6.090;2022-08-14T03:32:19;19.57;;;13.90;;
54699;SDS011;40599;53.132;6.090;2022-08-14T03:34:45;17.25;;;12.68;;
54699;SDS011;40599;53.132;6.090;2022-08-14T03:37:11;17.13;;;12.75;;
54699;SDS011;40599;53.132;6.090;2022-08-14T03:39:37;17.98;;;12.93;;
54699;SDS011;40599;53.132;6.090;2022-08-14T03:42:03;15.82;;;12.80;;
54699;SDS011;40599;53.132;6.090;2022-08-14T03:44:29;16.83;;;13.32;;
54699;SDS011;40599;53.132;6.090;2022-08-14T03:46:56;15.70;;;14.10;;
54699;SDS011;40599;53.132;6.090;2022-08-14T03:49:23;21.15;;;13.57;;
54699;SDS011;40599;53.132;6.090;2022-08-14T03:51:49;15.52;;;13.07;;
54699;SDS011;40599;53.132;6.090;2022-08-14T03:54:15;16.73;;;13.23;;
54699;SDS011;40599;53.132;6.090;2022-08-14T03:56:41;17.08;;;13.88;;
54699;SDS011;40599;53.132;6.090;2022-08-14T03:59:09;22.10;;;15.17;;
54699;SDS011;40599;53.132;6.090;2022-08-14T04:01:38;20.60;;;14.53;;
54699;SDS011;40599;53.132;6.090;2022-08-14T04:04:05;17.07;;;14.80;;
54699;SDS011;40599;53.132;6.090;2022-08-14T04:10:12;15.77;;;13.23;;
54699;SDS011;40599;53.132;6.090;2022-08-14T04:12:38;15.55;;;12.05;;
54699;SDS011;40599;53.132;6.090;2022-08-14T04:15:04;15.90;;;13.65;;
54699;SDS011;40599;53.132;6.090;2022-08-14T04:17:30;20.15;;;13.05;;
54699;SDS011;40599;53.132;6.090;2022-08-14T04:19:57;14.83;;;12.77;;
54699;SDS011;40599;53.132;6.090;2022-08-14T04:22:28;15.63;;;12.93;;
54699;SDS011;40599;53.132;6.090;2022-08-14T04:24:56;16.43;;;13.63;;
54699;SDS011;40599;53.132;6.090;2022-08-14T04:27:23;16.60;;;13.57;;
54699;SDS011;40599;53.132;6.090;2022-08-14T04:29:50;17.77;;;12.80;;
54699;SDS011;40599;53.132;6.090;2022-08-14T04:32:15;14.93;;;13.33;;
54699;SDS011;40599;53.132;6.090;2022-08-14T04:34:43;15.43;;;13.37;;
54699;SDS011;40599;53.132;6.090;2022-08-14T04:37:08;20.93;;;13.80;;
54699;SDS011;40599;53.132;6.090;2022-08-14T04:39:53;16.20;;;12.90;;
54699;SDS011;40599;53.132;6.090;2022-08-14T04:42:38;19.40;;;14.27;;
54699;SDS011;40599;53.132;6.090;2022-08-14T04:45:24;20.43;;;14.00;;
54699;SDS011;40599;53.132;6.090;2022-08-14T04:47:56;20.53;;;15.87;;
54699;SDS011;40599;53.132;6.090;2022-08-14T04:50:45;20.10;;;15.97;;
54699;SDS011;40599;53.132;6.090;2022-08-14T04:53:14;20.97;;;15.10;;
54699;SDS011;40599;53.132;6.090;2022-08-14T04:55:43;19.57;;;16.40;;
54699;SDS011;40599;53.132;6.090;2022-08-14T04:58:16;16.43;;;14.30;;
54699;SDS011;40599;53.132;6.090;2022-08-14T05:00:45;16.70;;;14.50;;
54699;SDS011;40599;53.132;6.090;2022-08-14T05:03:18;17.70;;;15.43;;
54699;SDS011;40599;53.132;6.090;2022-08-14T05:05:48;16.50;;;14.70;;
54699;SDS011;40599;53.132;6.090;2022-08-14T05:08:15;20.20;;;15.33;;
54699;SDS011;40599;53.132;6.090;2022-08-14T05:10:43;16.30;;;14.60;;
54699;SDS011;40599;53.132;6.090;2022-08-14T05:13:10;21.10;;;15.33;;
54699;SDS011;40599;53.132;6.090;2022-08-14T05:18:08;18.55;;;14.50;;
54699;SDS011;40599;53.132;6.090;2022-08-14T05:20:40;16.87;;;14.80;;
54699;SDS011;40599;53.132;6.090;2022-08-14T05:23:08;17.20;;;15.37;;
54699;SDS011;40599;53.132;6.090;2022-08-14T05:25:35;18.35;;;15.40;;
54699;SDS011;40599;53.132;6.090;2022-08-14T05:28:21;20.63;;;15.00;;
54699;SDS011;40599;53.132;6.090;2022-08-14T05:30:53;18.85;;;15.05;;
54699;SDS011;40599;53.132;6.090;2022-08-14T05:33:22;23.27;;;15.57;;
54699;SDS011;40599;53.132;6.090;2022-08-14T05:35:50;20.73;;;15.77;;
54699;SDS011;40599;53.132;6.090;2022-08-14T05:38:18;20.20;;;15.57;;
54699;SDS011;40599;53.132;6.090;2022-08-14T05:40:49;17.57;;;14.97;;
54699;SDS011;40599;53.132;6.090;2022-08-14T05:43:15;16.80;;;14.87;;
54699;SDS011;40599;53.132;6.090;2022-08-14T05:45:42;21.27;;;15.63;;
54699;SDS011;40599;53.132;6.090;2022-08-14T05:48:12;15.77;;;14.10;;
54699;SDS011;40599;53.132;6.090;2022-08-14T05:50:39;17.73;;;15.33;;
54699;SDS011;40599;53.132;6.090;2022-08-14T05:53:04;22.53;;;15.77;;
54699;SDS011;40599;53.132;6.090;2022-08-14T05:55:30;19.23;;;15.50;;
54699;SDS011;40599;53.132;6.090;2022-08-14T06:00:25;24.37;;;15.97;;
54699;SDS011;40599;53.132;6.090;2022-08-14T06:02:53;21.77;;;16.00;;
54699;SDS011;40599;53.132;6.090;2022-08-14T06:05:23;19.47;;;14.37;;
54699;SDS011;40599;53.132;6.090;2022-08-14T06:07:49;17.43;;;15.53;;
54699;SDS011;40599;53.132;6.090;2022-08-14T06:10:15;19.60;;;15.43;;
54699;SDS011;40599;53.132;6.090;2022-08-14T06:12:41;16.45;;;13.95;;
54699;SDS011;40599;53.132;6.090;2022-08-14T06:15:07;18.27;;;14.60;;
54699;SDS011;40599;53.132;6.090;2022-08-14T06:20:17;18.20;;;14.43;;
54699;SDS011;40599;53.132;6.090;2022-08-14T06:22:43;17.88;;;14.35;;
54699;SDS011;40599;53.132;6.090;2022-08-14T06:25:10;16.37;;;14.43;;
54699;SDS011;40599;53.132;6.090;2022-08-14T06:27:41;17.37;;;14.13;;
54699;SDS011;40599;53.132;6.090;2022-08-14T06:30:10;17.17;;;13.13;;
54699;SDS011;40599;53.132;6.090;2022-08-14T06:32:40;17.20;;;13.67;;
54699;SDS011;40599;53.132;6.090;2022-08-14T06:35:06;19.05;;;13.80;;
54699;SDS011;40599;53.132;6.090;2022-08-14T06:37:53;15.40;;;12.90;;
54699;SDS011;40599;53.132;6.090;2022-08-14T06:40:27;14.60;;;13.03;;
54699;SDS011;40599;53.132;6.090;2022-08-14T06:42:59;15.40;;;11.70;;
54699;SDS011;40599;53.132;6.090;2022-08-14T06:45:27;21.20;;;12.00;;
54699;SDS011;40599;53.132;6.090;2022-08-14T06:47:53;12.35;;;10.98;;
54699;SDS011;40599;53.132;6.090;2022-08-14T06:50:20;12.98;;;11.13;;
54699;SDS011;40599;53.132;6.090;2022-08-14T06:52:47;13.53;;;11.80;;
54699;SDS011;40599;53.132;6.090;2022-08-14T06:55:15;13.93;;;11.23;;
54699;SDS011;40599;53.132;6.090;2022-08-14T06:57:43;14.73;;;10.30;;
54699;SDS011;40599;53.132;6.090;2022-08-14T07:00:19;11.53;;;9.70;;
54699;SDS011;40599;53.132;6.090;2022-08-14T07:02:47;13.03;;;10.03;;
54699;SDS011;40599;53.132;6.090;2022-08-14T07:05:32;13.93;;;10.07;;
54699;SDS011;40599;53.132;6.090;2022-08-14T07:08:24;13.60;;;10.63;;
54699;SDS011;40599;53.132;6.090;2022-08-14T07:10:53;12.10;;;9.80;;
54699;SDS011;40599;53.132;6.090;2022-08-14T07:13:20;12.97;;;10.67;;
54699;SDS011;40599;53.132;6.090;2022-08-14T07:15:47;13.10;;;10.45;;
54699;SDS011;40599;53.132;6.090;2022-08-14T07:18:18;11.20;;;9.70;;
54699;SDS011;40599;53.132;6.090;2022-08-14T07:20:45;13.23;;;10.77;;
54699;SDS011;40599;53.132;6.090;2022-08-14T07:23:10;12.40;;;11.05;;
54699;SDS011;40599;53.132;6.090;2022-08-14T07:25:37;14.75;;;11.07;;
54699;SDS011;40599;53.132;6.090;2022-08-14T07:28:14;13.23;;;10.97;;
54699;SDS011;40599;53.132;6.090;2022-08-14T07:30:44;14.03;;;11.37;;
54699;SDS011;40599;53.132;6.090;2022-08-14T07:33:10;13.77;;;11.18;;
54699;SDS011;40599;53.132;6.090;2022-08-14T07:35:37;14.50;;;9.57;;
54699;SDS011;40599;53.132;6.090;2022-08-14T07:38:04;11.77;;;9.80;;
54699;SDS011;40599;53.132;6.090;2022-08-14T07:40:31;11.83;;;9.40;;
54699;SDS011;40599;53.132;6.090;2022-08-14T07:42:58;10.47;;;8.53;;
54699;SDS011;40599;53.132;6.090;2022-08-14T07:45:25;10.80;;;8.77;;
54699;SDS011;40599;53.132;6.090;2022-08-14T07:47:50;11.10;;;8.95;;
54699;SDS011;40599;53.132;6.090;2022-08-14T07:50:18;11.13;;;7.60;;
54699;SDS011;40599;53.132;6.090;2022-08-14T07:52:45;10.40;;;8.57;;
54699;SDS011;40599;53.132;6.090;2022-08-14T07:55:13;10.27;;;8.33;;
54699;SDS011;40599;53.132;6.090;2022-08-14T07:57:40;9.07;;;8.10;;
54699;SDS011;40599;53.132;6.090;2022-08-14T08:00:09;12.97;;;8.77;;
54699;SDS011;40599;53.132;6.090;2022-08-14T08:02:43;12.77;;;8.30;;
54699;SDS011;40599;53.132;6.090;2022-08-14T08:05:11;13.90;;;9.70;;
54699;SDS011;40599;53.132;6.090;2022-08-14T08:07:38;10.60;;;8.10;;
54699;SDS011;40599;53.132;6.090;2022-08-14T08:10:06;8.93;;;8.03;;
54699;SDS011;40599;53.132;6.090;2022-08-14T08:12:56;9.83;;;8.83;;
54699;SDS011;40599;53.132;6.090;2022-08-14T08:15:23;10.80;;;9.17;;
54699;SDS011;40599;53.132;6.090;2022-08-14T08:17:51;11.50;;;8.83;;
54699;SDS011;40599;53.132;6.090;2022-08-14T08:20:17;8.10;;;7.30;;
54699;SDS011;40599;53.132;6.090;2022-08-14T08:22:45;8.60;;;7.70;;
54699;SDS011;40599;53.132;6.090;2022-08-14T08:25:12;12.80;;;8.23;;
54699;SDS011;40599;53.132;6.090;2022-08-14T08:27:38;8.30;;;7.50;;
54699;SDS011;40599;53.132;6.090;2022-08-14T08:30:05;10.97;;;7.57;;
54699;SDS011;40599;53.132;6.090;2022-08-14T08:32:40;10.33;;;8.17;;
54699;SDS011;40599;53.132;6.090;2022-08-14T08:35:17;11.60;;;9.10;;
54699;SDS011;40599;53.132;6.090;2022-08-14T08:37:49;11.17;;;7.83;;
54699;SDS011;40599;53.132;6.090;2022-08-14T08:40:22;8.83;;;7.93;;
54699;SDS011;40599;53.132;6.090;2022-08-14T08:42:53;11.73;;;8.23;;
54699;SDS011;40599;53.132;6.090;2022-08-14T08:45:19;8.50;;;7.70;;
54699;SDS011;40599;53.132;6.090;2022-08-14T08:47:46;8.50;;;7.47;;
54699;SDS011;40599;53.132;6.090;2022-08-14T08:50:15;11.37;;;8.30;;
54699;SDS011;40599;53.132;6.090;2022-08-14T08:52:48;9.20;;;7.83;;
54699;SDS011;40599;53.132;6.090;2022-08-14T08:58:17;11.17;;;8.20;;
54699;SDS011;40599;53.132;6.090;2022-08-14T09:00:47;8.57;;;7.63;;
54699;SDS011;40599;53.132;6.090;2022-08-14T09:03:19;10.93;;;7.53;;
54699;SDS011;40599;53.132;6.090;2022-08-14T09:08:25;8.27;;;7.47;;
54699;SDS011;40599;53.132;6.090;2022-08-14T09:10:53;7.93;;;7.13;;
54699;SDS011;40599;53.132;6.090;2022-08-14T09:13:20;8.03;;;7.33;;
54699;SDS011;40599;53.132;6.090;2022-08-14T09:15:47;9.37;;;7.60;;
54699;SDS011;40599;53.132;6.090;2022-08-14T09:18:15;9.43;;;7.00;;
54699;SDS011;40599;53.132;6.090;2022-08-14T09:20:44;10.33;;;7.30;;
54699;SDS011;40599;53.132;6.090;2022-08-14T09:23:12;7.87;;;7.07;;
54699;SDS011;40599;53.132;6.090;2022-08-14T09:25:39;8.50;;;6.83;;
54699;SDS011;40599;53.132;6.090;2022-08-14T09:28:06;9.60;;;6.37;;
54699;SDS011;40599;53.132;6.090;2022-08-14T09:30:34;8.07;;;7.27;;
54699;SDS011;40599;53.132;6.090;2022-08-14T09:33:24;8.43;;;7.00;;
54699;SDS011;40599;53.132;6.090;2022-08-14T09:39:06;7.40;;;6.60;;
54699;SDS011;40599;53.132;6.090;2022-08-14T09:46:57;8.13;;;7.13;;
54699;SDS011;40599;53.132;6.090;2022-08-14T09:49:34;7.27;;;6.57;;
54699;SDS011;40599;53.132;6.090;2022-08-14T09:52:02;8.03;;;6.90;;
54699;SDS011;40599;53.132;6.090;2022-08-14T09:54:40;7.67;;;6.50;;
54699;SDS011;40599;53.132;6.090;2022-08-14T09:57:22;8.97;;;6.60;;
54699;SDS011;40599;53.132;6.090;2022-08-14T09:59:50;9.07;;;6.60;;
54699;SDS011;40599;53.132;6.090;2022-08-14T10:02:23;7.20;;;6.50;;
54699;SDS011;40599;53.132;6.090;2022-08-14T10:05:09;6.70;;;5.80;;
54699;SDS011;40599;53.132;6.090;2022-08-14T10:12:41;7.15;;;5.63;;
54699;SDS011;40599;53.132;6.090;2022-08-14T10:15:15;6.70;;;6.00;;
54699;SDS011;40599;53.132;6.090;2022-08-14T10:17:43;9.47;;;6.37;;
54699;SDS011;40599;53.132;6.090;2022-08-14T10:20:11;7.40;;;5.90;;
54699;SDS011;40599;53.132;6.090;2022-08-14T10:22:37;8.27;;;5.67;;
54699;SDS011;40599;53.132;6.090;2022-08-14T10:27:39;7.53;;;5.70;;
54699;SDS011;40599;53.132;6.090;2022-08-14T10:30:18;6.70;;;6.10;;
54699;SDS011;40599;53.132;6.090;2022-08-14T10:32:44;7.93;;;5.53;;
54699;SDS011;40599;53.132;6.090;2022-08-14T10:35:12;6.47;;;5.53;;
54699;SDS011;40599;53.132;6.090;2022-08-14T10:37:39;6.53;;;5.17;;
54699;SDS011;40599;53.132;6.090;2022-08-14T10:40:14;5.97;;;5.40;;
54699;SDS011;40599;53.132;6.090;2022-08-14T10:42:41;7.13;;;5.40;;
54699;SDS011;40599;53.132;6.090;2022-08-14T10:47:45;6.05;;;5.47;;
54699;SDS011;40599;53.132;6.090;2022-08-14T10:50:13;7.43;;;5.43;;
54699;SDS011;40599;53.132;6.090;2022-08-14T10:52:39;6.37;;;5.77;;
54699;SDS011;40599;53.132;6.090;2022-08-14T10:57:54;7.23;;;5.97;;
54699;SDS011;40599;53.132;6.090;2022-08-14T11:00:24;7.03;;;6.33;;
54699;SDS011;40599;53.132;6.090;2022-08-14T11:02:59;6.80;;;6.00;;
54699;SDS011;40599;53.132;6.090;2022-08-14T11:05:42;6.37;;;5.73;;
54699;SDS011;40599;53.132;6.090;2022-08-14T11:08:13;6.40;;;5.60;;
54699;SDS011;40599;53.132;6.090;2022-08-14T11:16:05;7.80;;;5.80;;
54699;SDS011;40599;53.132;6.090;2022-08-14T11:18:31;8.13;;;5.57;;
54699;SDS011;40599;53.132;6.090;2022-08-14T11:23:26;6.38;;;5.32;;
54699;SDS011;40599;53.132;6.090;2022-08-14T11:26:00;6.47;;;5.80;;
54699;SDS011;40599;53.132;6.090;2022-08-14T11:28:27;7.40;;;5.50;;
54699;SDS011;40599;53.132;6.090;2022-08-14T11:30:57;6.15;;;5.55;;
54699;SDS011;40599;53.132;6.090;2022-08-14T11:33:25;6.07;;;5.47;;
54699;SDS011;40599;53.132;6.090;2022-08-14T11:35:57;6.40;;;5.80;;
54699;SDS011;40599;53.132;6.090;2022-08-14T11:38:26;6.80;;;5.70;;
54699;SDS011;40599;53.132;6.090;2022-08-14T11:40:59;6.57;;;5.47;;
54699;SDS011;40599;53.132;6.090;2022-08-14T11:43:26;6.78;;;6.10;;
54699;SDS011;40599;53.132;6.090;2022-08-14T11:45:51;6.43;;;5.65;;
54699;SDS011;40599;53.132;6.090;2022-08-14T11:50:45;6.55;;;5.60;;
54699;SDS011;40599;53.132;6.090;2022-08-14T11:53:28;5.65;;;5.07;;
54699;SDS011;40599;53.132;6.090;2022-08-14T11:56:04;6.32;;;5.72;;
54699;SDS011;40599;53.132;6.090;2022-08-14T11:58:32;7.70;;;5.50;;
54699;SDS011;40599;53.132;6.090;2022-08-14T12:01:08;7.65;;;5.45;;
54699;SDS011;40599;53.132;6.090;2022-08-14T12:06:04;8.80;;;5.38;;
54699;SDS011;40599;53.132;6.090;2022-08-14T12:08:32;6.00;;;5.40;;
54699;SDS011;40599;53.132;6.090;2022-08-14T12:10:59;9.50;;;5.53;;
54699;SDS011;40599;53.132;6.090;2022-08-14T12:13:25;6.55;;;5.95;;
54699;SDS011;40599;53.132;6.090;2022-08-14T12:15:59;6.10;;;5.15;;
54699;SDS011;40599;53.132;6.090;2022-08-14T12:18:30;6.10;;;5.60;;
54699;SDS011;40599;53.132;6.090;2022-08-14T12:21:09;5.72;;;5.18;;
54699;SDS011;40599;53.132;6.090;2022-08-14T12:23:39;6.85;;;5.45;;
54699;SDS011;40599;53.132;6.090;2022-08-14T12:26:06;7.70;;;5.65;;
54699;SDS011;40599;53.132;6.090;2022-08-14T12:28:34;6.35;;;5.03;;
54699;SDS011;40599;53.132;6.090;2022-08-14T12:31:10;5.97;;;5.35;;
54699;SDS011;40599;53.132;6.090;2022-08-14T12:33:43;8.98;;;5.20;;
54699;SDS011;40599;53.132;6.090;2022-08-14T12:36:20;5.93;;;5.30;;
54699;SDS011;40599;53.132;6.090;2022-08-14T12:38:46;6.18;;;5.57;;
54699;SDS011;40599;53.132;6.090;2022-08-14T12:41:16;5.60;;;5.10;;
54699;SDS011;40599;53.132;6.090;2022-08-14T12:43:56;6.10;;;5.47;;
54699;SDS011;40599;53.132;6.090;2022-08-14T12:48:52;7.63;;;5.72;;
54699;SDS011;40599;53.132;6.090;2022-08-14T12:51:19;6.43;;;5.32;;
54699;SDS011;40599;53.132;6.090;2022-08-14T12:53:47;6.63;;;5.93;;
54699;SDS011;40599;53.132;6.090;2022-08-14T12:56:17;6.50;;;5.90;;
54699;SDS011;40599;53.132;6.090;2022-08-14T12:58:51;6.38;;;5.82;;
54699;SDS011;40599;53.132;6.090;2022-08-14T13:03:48;8.23;;;6.20;;
54699;SDS011;40599;53.132;6.090;2022-08-14T13:06:14;7.15;;;5.68;;
54699;SDS011;40599;53.132;6.090;2022-08-14T13:08:40;5.90;;;5.40;;
54699;SDS011;40599;53.132;6.090;2022-08-14T13:11:13;7.05;;;5.82;;
54699;SDS011;40599;53.132;6.090;2022-08-14T13:13:40;7.03;;;6.32;;
54699;SDS011;40599;53.132;6.090;2022-08-14T13:16:09;8.18;;;6.72;;
54699;SDS011;40599;53.132;6.090;2022-08-14T13:18:38;7.65;;;6.50;;
54699;SDS011;40599;53.132;6.090;2022-08-14T13:21:06;6.75;;;6.10;;
54699;SDS011;40599;53.132;6.090;2022-08-14T13:23:34;6.75;;;6.15;;
54699;SDS011;40599;53.132;6.090;2022-08-14T13:26:01;8.30;;;6.72;;
54699;SDS011;40599;53.132;6.090;2022-08-14T13:31:34;6.95;;;6.18;;
54699;SDS011;40599;53.132;6.090;2022-08-14T13:34:02;8.55;;;6.25;;
54699;SDS011;40599;53.132;6.090;2022-08-14T13:36:29;8.20;;;6.70;;
54699;SDS011;40599;53.132;6.090;2022-08-14T13:38:56;7.95;;;6.20;;
54699;SDS011;40599;53.132;6.090;2022-08-14T13:41:25;9.73;;;6.22;;
54699;SDS011;40599;53.132;6.090;2022-08-14T13:43:51;8.18;;;6.38;;
54699;SDS011;40599;53.132;6.090;2022-08-14T13:46:20;8.77;;;6.40;;
54699;SDS011;40599;53.132;6.090;2022-08-14T13:48:46;8.70;;;7.18;;
54699;SDS011;40599;53.132;6.090;2022-08-14T13:51:14;7.60;;;6.90;;
54699;SDS011;40599;53.132;6.090;2022-08-14T13:53:45;7.55;;;6.70;;
54699;SDS011;40599;53.132;6.090;2022-08-14T13:56:14;7.22;;;6.28;;
54699;SDS011;40599;53.132;6.090;2022-08-14T13:58:42;7.53;;;6.82;;
54699;SDS011;40599;53.132;6.090;2022-08-14T14:01:17;9.52;;;6.80;;
54699;SDS011;40599;53.132;6.090;2022-08-14T14:06:14;7.85;;;6.40;;
54699;SDS011;40599;53.132;6.090;2022-08-14T14:08:45;6.88;;;6.18;;
54699;SDS011;40599;53.132;6.090;2022-08-14T14:11:17;7.63;;;6.82;;
54699;SDS011;40599;53.132;6.090;2022-08-14T14:13:48;12.35;;;7.13;;
54699;SDS011;40599;53.132;6.090;2022-08-14T14:16:15;6.78;;;6.13;;
54699;SDS011;40599;53.132;6.090;2022-08-14T14:18:45;6.68;;;5.97;;
54699;SDS011;40599;53.132;6.090;2022-08-14T14:21:16;8.38;;;5.97;;
54699;SDS011;40599;53.132;6.090;2022-08-14T14:23:45;7.03;;;6.30;;
54699;SDS011;40599;53.132;6.090;2022-08-14T14:26:15;9.65;;;6.40;;
54699;SDS011;40599;53.132;6.090;2022-08-14T14:28:47;6.53;;;5.93;;
54699;SDS011;40599;53.132;6.090;2022-08-14T14:31:20;7.22;;;6.03;;
54699;SDS011;40599;53.132;6.090;2022-08-14T14:33:55;5.93;;;5.32;;
54699;SDS011;40599;53.132;6.090;2022-08-14T14:36:29;6.32;;;5.72;;
54699;SDS011;40599;53.132;6.090;2022-08-14T14:39:04;7.35;;;6.50;;
54699;SDS011;40599;53.132;6.090;2022-08-14T14:41:32;10.10;;;6.47;;
54699;SDS011;40599;53.132;6.090;2022-08-14T14:44:01;8.73;;;6.28;;
54699;SDS011;40599;53.132;6.090;2022-08-14T14:46:34;6.65;;;5.75;;
54699;SDS011;40599;53.132;6.090;2022-08-14T14:49:01;7.10;;;5.93;;
54699;SDS011;40599;53.132;6.090;2022-08-14T14:51:28;6.57;;;5.97;;
54699;SDS011;40599;53.132;6.090;2022-08-14T14:53:55;6.45;;;5.85;;
54699;SDS011;40599;53.132;6.090;2022-08-14T14:56:25;8.32;;;6.10;;
54699;SDS011;40599;53.132;6.090;2022-08-14T14:58:53;6.40;;;5.78;;
54699;SDS011;40599;53.132;6.090;2022-08-14T15:01:19;8.63;;;6.03;;
54699;SDS011;40599;53.132;6.090;2022-08-14T15:03:48;6.40;;;5.72;;
54699;SDS011;40599;53.132;6.090;2022-08-14T15:06:18;6.57;;;5.63;;
54699;SDS011;40599;53.132;6.090;2022-08-14T15:08:45;6.50;;;5.90;;
54699;SDS011;40599;53.132;6.090;2022-08-14T15:11:11;5.95;;;5.38;;
54699;SDS011;40599;53.132;6.090;2022-08-14T15:13:36;6.18;;;5.50;;
54699;SDS011;40599;53.132;6.090;2022-08-14T15:16:03;12.93;;;5.97;;
54699;SDS011;40599;53.132;6.090;2022-08-14T15:18:30;6.40;;;5.50;;
54699;SDS011;40599;53.132;6.090;2022-08-14T15:20:56;7.50;;;5.43;;
54699;SDS011;40599;53.132;6.090;2022-08-14T15:23:24;6.55;;;5.30;;
54699;SDS011;40599;53.132;6.090;2022-08-14T15:25:50;6.47;;;5.85;;
54699;SDS011;40599;53.132;6.090;2022-08-14T15:28:16;7.03;;;6.25;;
54699;SDS011;40599;53.132;6.090;2022-08-14T15:30:43;6.38;;;5.78;;
54699;SDS011;40599;53.132;6.090;2022-08-14T15:33:10;5.90;;;5.40;;
54699;SDS011;40599;53.132;6.090;2022-08-14T15:35:37;6.40;;;5.80;;
54699;SDS011;40599;53.132;6.090;2022-08-14T15:38:03;6.32;;;5.75;;
54699;SDS011;40599;53.132;6.090;2022-08-14T15:40:39;6.78;;;6.07;;
54699;SDS011;40599;53.132;6.090;2022-08-14T15:43:09;7.75;;;5.78;;
54699;SDS011;40599;53.132;6.090;2022-08-14T15:45:39;6.10;;;5.45;;
54699;SDS011;40599;53.132;6.090;2022-08-14T15:48:05;8.68;;;5.80;;
54699;SDS011;40599;53.132;6.090;2022-08-14T15:50:32;8.80;;;5.80;;
54699;SDS011;40599;53.132;6.090;2022-08-14T15:52:58;7.38;;;6.10;;
54699;SDS011;40599;53.132;6.090;2022-08-14T15:55:24;6.53;;;5.70;;
54699;SDS011;40599;53.132;6.090;2022-08-14T15:57:50;7.85;;;5.57;;